createdAt,value
2023-03-27T00:01:25.516Z,12.50
2023-03-27T00:03:53.473Z,13.70
2023-03-27T00:06:20.972Z,9.75
2023-03-27T00:08:49.128Z,11.00
2023-03-27T00:11:16.935Z,9.30
2023-03-27T00:13:50.176Z,9.32
2023-03-27T00:16:18.984Z,10.30
2023-03-27T00:18:46.761Z,9.70
2023-03-27T00:21:14.110Z,10.18
2023-03-27T00:23:42.416Z,10.40
2023-03-27T00:26:09.928Z,9.43
2023-03-27T00:28:37.092Z,13.98
2023-03-27T00:31:04.535Z,11.48
2023-03-27T00:33:31.695Z,9.07
2023-03-27T00:35:58.909Z,8.55
2023-03-27T00:38:26.278Z,6.95
2023-03-27T00:40:55.472Z,12.38
2023-03-27T00:43:29.457Z,9.85
2023-03-27T00:46:01.672Z,14.50
2023-03-27T00:48:29.386Z,18.50
2023-03-27T00:50:57.415Z,13.98
2023-03-27T00:53:25.747Z,11.15
2023-03-27T00:55:53.867Z,10.32
2023-03-27T00:58:26.612Z,8.63
2023-03-27T01:00:54.262Z,7.38
2023-03-27T01:03:21.942Z,10.70
2023-03-27T01:05:49.785Z,10.80
2023-03-27T01:08:17.122Z,12.63
2023-03-27T01:10:53.218Z,7.35
2023-03-27T01:13:23.304Z,6.80
2023-03-27T01:15:56.324Z,10.88
2023-03-27T01:18:39.276Z,7.97
2023-03-27T01:21:06.398Z,5.82
2023-03-27T01:23:59.078Z,5.78
2023-03-27T01:26:45.789Z,7.65
2023-03-27T01:29:15.829Z,7.13
2023-03-27T01:31:52.139Z,6.50
2023-03-27T01:34:22.379Z,8.38
2023-03-27T01:36:52.288Z,11.20
2023-03-27T01:39:19.406Z,12.20
2023-03-27T01:41:49.796Z,14.07
2023-03-27T01:44:43.790Z,17.83
2023-03-27T01:47:22.064Z,14.10
2023-03-27T01:50:15.755Z,11.32
2023-03-27T01:52:43.804Z,9.00
2023-03-27T01:55:19.011Z,9.93
2023-03-27T01:57:50.236Z,12.93
2023-03-27T02:00:21.765Z,11.48
2023-03-27T02:02:51.478Z,16.05
2023-03-27T02:05:27.783Z,17.00
2023-03-27T02:07:56.191Z,21.60
2023-03-27T02:10:28.355Z,19.25
2023-03-27T02:12:57.126Z,13.50
2023-03-27T02:15:26.298Z,16.10
2023-03-27T02:18:06.296Z,11.75
2023-03-27T02:20:33.946Z,10.55
2023-03-27T02:23:01.063Z,9.10
2023-03-27T02:25:28.343Z,11.35
2023-03-27T02:28:13.938Z,10.05
2023-03-27T02:30:42.807Z,11.30
2023-03-27T02:33:14.772Z,17.65
2023-03-27T02:35:48.268Z,26.42
2023-03-27T02:38:17.501Z,23.50
2023-03-27T02:40:59.808Z,21.13
2023-03-27T02:43:32.046Z,19.02
2023-03-27T02:45:59.233Z,18.70
2023-03-27T02:48:26.414Z,17.45
2023-03-27T02:51:16.581Z,17.20
2023-03-27T02:53:45.987Z,18.65
2023-03-27T02:56:13.603Z,23.15
2023-03-27T02:58:46.335Z,35.58
2023-03-27T03:01:15.473Z,47.83
2023-03-27T03:03:53.715Z,44.88
2023-03-27T03:06:21.310Z,41.65
2023-03-27T03:08:49.156Z,19.90
2023-03-27T03:11:16.320Z,36.95
2023-03-27T03:13:43.490Z,34.90
2023-03-27T03:16:10.967Z,28.70
2023-03-27T03:18:38.216Z,28.65
2023-03-27T03:21:05.835Z,18.80
2023-03-27T03:23:33.069Z,21.67
2023-03-27T03:26:00.258Z,26.90
2023-03-27T03:28:27.390Z,26.55
2023-03-27T03:30:54.606Z,23.83
2023-03-27T03:33:21.957Z,34.70
2023-03-27T03:35:49.504Z,36.47
2023-03-27T03:38:25.031Z,39.50
2023-03-27T03:40:53.108Z,34.45
2023-03-27T03:43:21.153Z,39.03
2023-03-27T03:45:48.432Z,38.42
2023-03-27T03:48:15.613Z,26.23
2023-03-27T03:50:43.216Z,24.50
2023-03-27T03:53:10.425Z,20.75
2023-03-27T03:55:37.617Z,27.02
2023-03-27T03:58:04.964Z,20.92
2023-03-27T04:00:34.584Z,23.60
2023-03-27T04:03:02.075Z,23.02
2023-03-27T04:05:29.209Z,23.58
2023-03-27T04:07:56.352Z,23.58
2023-03-27T04:10:23.762Z,25.15
2023-03-27T04:12:51.250Z,23.38
2023-03-27T04:15:18.616Z,28.77
2023-03-27T04:17:48.424Z,25.77
2023-03-27T04:20:17.292Z,29.52
2023-03-27T04:22:46.794Z,28.75
2023-03-27T04:25:14.711Z,34.88
2023-03-27T04:27:43.264Z,24.73
2023-03-27T04:30:14.160Z,24.90
2023-03-27T04:32:41.485Z,25.45
2023-03-27T04:35:10.930Z,23.73
2023-03-27T04:37:41.659Z,20.50
2023-03-27T04:40:09.129Z,22.90
2023-03-27T04:42:36.351Z,22.25
2023-03-27T04:45:04.297Z,21.85
2023-03-27T04:47:31.823Z,22.83
2023-03-27T04:50:00.200Z,31.92
2023-03-27T04:52:29.638Z,29.63
2023-03-27T04:54:58.824Z,29.75
2023-03-27T04:57:27.814Z,27.58
2023-03-27T04:59:55.202Z,27.85
2023-03-27T05:02:23.184Z,37.03
2023-03-27T05:04:50.378Z,39.30
2023-03-27T05:07:17.529Z,33.50
2023-03-27T05:09:44.673Z,27.63
2023-03-27T05:12:11.944Z,29.45
2023-03-27T05:14:39.432Z,27.77
2023-03-27T05:17:06.978Z,28.67
2023-03-27T05:19:35.163Z,32.30
2023-03-27T05:22:02.343Z,32.35
2023-03-27T05:24:29.474Z,30.38
2023-03-27T05:26:56.608Z,24.38
2023-03-27T05:29:23.772Z,23.70
2023-03-27T05:31:50.964Z,30.60
2023-03-27T05:34:20.822Z,28.77
2023-03-27T05:36:48.007Z,27.67
2023-03-27T05:39:16.601Z,39.90
2023-03-27T05:41:44.558Z,32.08
2023-03-27T05:44:11.721Z,31.60
2023-03-27T05:46:40.049Z,30.77
2023-03-27T05:49:07.207Z,33.40
2023-03-27T05:51:34.349Z,27.92
2023-03-27T05:54:01.527Z,26.55
2023-03-27T05:56:28.671Z,26.20
2023-03-27T05:58:56.306Z,25.48
2023-03-27T06:01:23.438Z,34.33
2023-03-27T06:03:56.057Z,49.13
2023-03-27T06:06:23.452Z,46.22
2023-03-27T06:08:50.736Z,44.78
2023-03-27T06:11:18.058Z,34.00
2023-03-27T06:13:45.516Z,27.98
2023-03-27T06:16:12.766Z,29.35
2023-03-27T06:18:39.962Z,27.10
2023-03-27T06:21:07.388Z,27.38
2023-03-27T06:23:34.570Z,25.25
2023-03-27T06:26:01.995Z,21.92
2023-03-27T06:28:29.817Z,23.02
2023-03-27T06:30:57.726Z,20.23
2023-03-27T06:33:25.733Z,22.75
2023-03-27T06:35:53.745Z,29.60
2023-03-27T06:38:21.287Z,19.33
2023-03-27T06:40:49.404Z,29.83
2023-03-27T06:43:19.100Z,20.88
2023-03-27T06:45:46.975Z,25.75
2023-03-27T06:48:21.387Z,21.63
2023-03-27T06:50:49.931Z,27.35
2023-03-27T06:55:47.697Z,22.83
2023-03-27T06:58:15.139Z,33.28
2023-03-27T07:00:42.401Z,29.90
2023-03-27T07:03:10.203Z,29.02
2023-03-27T07:05:38.953Z,36.55
2023-03-27T07:08:21.666Z,17.30
2023-03-27T07:11:03.870Z,24.23
2023-03-27T07:13:37.665Z,17.48
2023-03-27T07:16:05.060Z,22.30
2023-03-27T07:18:32.285Z,21.70
2023-03-27T07:20:59.963Z,22.80
2023-03-27T07:23:27.448Z,25.48
2023-03-27T07:25:58.154Z,27.33
2023-03-27T07:28:25.481Z,39.47
2023-03-27T07:30:52.632Z,35.08
2023-03-27T07:33:20.052Z,32.72
2023-03-27T07:35:48.205Z,34.80
2023-03-27T07:38:16.821Z,28.80
2023-03-27T07:40:46.025Z,30.92
2023-03-27T07:43:13.665Z,23.65
2023-03-27T07:45:41.616Z,20.60
2023-03-27T07:48:09.946Z,20.63
2023-03-27T07:50:37.761Z,19.45
2023-03-27T07:53:06.409Z,16.75
2023-03-27T07:55:33.761Z,18.27
2023-03-27T07:58:03.218Z,17.00
2023-03-27T08:00:33.915Z,16.13
2023-03-27T08:03:07.908Z,13.48
2023-03-27T08:05:35.709Z,14.95
2023-03-27T08:08:02.940Z,16.38
2023-03-27T08:10:30.359Z,21.42
2023-03-27T08:12:57.542Z,15.93
2023-03-27T08:15:25.212Z,31.98
2023-03-27T08:17:54.641Z,28.00
2023-03-27T08:20:23.347Z,31.70
2023-03-27T08:22:53.581Z,24.10
2023-03-27T08:25:22.595Z,33.40
2023-03-27T08:27:51.412Z,28.25
2023-03-27T08:30:19.569Z,24.95
2023-03-27T08:32:46.754Z,15.65
2023-03-27T08:35:14.390Z,15.50
2023-03-27T08:37:41.784Z,19.77
2023-03-27T08:40:14.272Z,17.75
2023-03-27T08:42:42.236Z,15.73
2023-03-27T08:45:20.755Z,18.95
2023-03-27T08:47:52.435Z,16.17
2023-03-27T08:50:32.769Z,26.02
2023-03-27T08:53:00.114Z,21.08
2023-03-27T08:55:34.483Z,19.63
2023-03-27T08:58:01.608Z,17.10
2023-03-27T09:00:33.713Z,26.17
2023-03-27T09:03:10.731Z,25.30
2023-03-27T09:05:42.524Z,34.25
2023-03-27T09:08:22.146Z,33.35
2023-03-27T09:10:52.916Z,12.38
2023-03-27T09:13:23.956Z,11.43
2023-03-27T09:15:51.259Z,10.32
2023-03-27T09:18:25.127Z,11.10
2023-03-27T09:20:56.813Z,15.43
2023-03-27T09:23:26.019Z,10.77
2023-03-27T09:25:57.865Z,10.20
2023-03-27T09:28:32.303Z,11.52
2023-03-27T09:31:01.715Z,9.57
2023-03-27T09:33:28.924Z,6.82
2023-03-27T09:35:56.472Z,6.38
2023-03-27T09:38:34.408Z,5.10
2023-03-27T09:41:02.920Z,4.90
2023-03-27T09:43:31.666Z,6.97
2023-03-27T09:45:59.027Z,7.45
2023-03-27T09:48:32.024Z,5.53
2023-03-27T09:50:59.248Z,4.60
2023-03-27T09:53:27.958Z,6.13
2023-03-27T09:56:03.351Z,5.28
2023-03-27T09:58:33.441Z,9.13
2023-03-27T10:01:07.255Z,6.40
2023-03-27T10:03:38.359Z,9.00
2023-03-27T10:06:06.066Z,10.30
2023-03-27T10:08:39.155Z,7.03
2023-03-27T10:11:07.918Z,12.17
2023-03-27T10:13:35.085Z,7.73
2023-03-27T10:16:03.082Z,6.70
2023-03-27T10:18:31.452Z,6.90
2023-03-27T10:21:09.159Z,7.07
2023-03-27T10:23:43.024Z,8.53
2023-03-27T10:26:12.268Z,9.87
2023-03-27T10:28:40.874Z,14.30
2023-03-27T10:31:10.976Z,12.60
2023-03-27T10:33:39.764Z,8.30
2023-03-27T10:36:07.565Z,8.95
2023-03-27T10:38:34.855Z,12.83
2023-03-27T10:41:02.030Z,9.77
2023-03-27T10:43:40.171Z,8.30
2023-03-27T10:46:11.662Z,7.73
2023-03-27T10:48:49.477Z,12.70
2023-03-27T10:51:39.491Z,11.07
2023-03-27T10:54:30.009Z,13.63
2023-03-27T10:57:02.490Z,9.70
2023-03-27T10:59:41.482Z,10.40
2023-03-27T11:02:16.678Z,8.63
2023-03-27T11:04:45.621Z,11.50
2023-03-27T11:07:16.386Z,15.47
2023-03-27T11:09:49.167Z,12.57
2023-03-27T11:12:16.685Z,11.73
2023-03-27T11:14:49.219Z,10.53
2023-03-27T11:17:17.648Z,13.53
2023-03-27T11:19:52.691Z,12.57
2023-03-27T11:22:31.065Z,10.70
2023-03-27T11:25:02.905Z,9.63
2023-03-27T11:27:31.763Z,10.17
2023-03-27T11:30:16.304Z,11.57
2023-03-27T11:33:13.349Z,8.63
2023-03-27T11:35:42.322Z,10.23
2023-03-27T11:38:17.347Z,16.97
2023-03-27T11:40:45.688Z,12.73
2023-03-27T11:43:13.240Z,10.53
2023-03-27T11:45:43.215Z,21.67
2023-03-27T11:48:13.325Z,11.50
2023-03-27T11:50:59.303Z,14.23
2023-03-27T11:53:27.274Z,17.57
2023-03-27T11:55:54.384Z,10.10
2023-03-27T11:58:30.830Z,10.27
2023-03-27T12:01:17.817Z,12.90
2023-03-27T12:03:45.190Z,18.57
2023-03-27T12:06:19.094Z,16.60
2023-03-27T12:09:04.317Z,13.67
2023-03-27T12:11:31.441Z,54.13
2023-03-27T12:14:17.751Z,45.17
2023-03-27T12:16:46.053Z,26.87
2023-03-27T12:19:28.489Z,21.67
2023-03-27T12:22:09.311Z,15.37
2023-03-27T12:24:50.033Z,15.07
2023-03-27T12:27:29.314Z,19.83
2023-03-27T12:29:56.520Z,31.30
2023-03-27T12:32:42.675Z,17.20
2023-03-27T12:35:13.397Z,19.30
2023-03-27T12:37:43.641Z,23.33
2023-03-27T12:40:14.848Z,18.03
2023-03-27T12:42:54.547Z,21.33
2023-03-27T12:45:22.553Z,17.43
2023-03-27T12:48:05.340Z,26.30
2023-03-27T12:50:36.932Z,21.53
2023-03-27T12:53:05.634Z,26.33
2023-03-27T12:55:33.927Z,25.07
2023-03-27T12:58:01.427Z,26.67
2023-03-27T13:00:28.933Z,24.23
2023-03-27T13:03:14.555Z,27.43
2023-03-27T13:06:00.567Z,18.30
2023-03-27T13:08:37.582Z,61.87
2023-03-27T13:11:24.120Z,48.43
2023-03-27T13:14:03.921Z,30.23
2023-03-27T13:16:48.509Z,55.17
2023-03-27T13:19:31.166Z,72.50
2023-03-27T13:22:01.310Z,44.10
2023-03-27T13:24:37.432Z,30.57
2023-03-27T13:27:27.618Z,26.60
2023-03-27T13:29:54.790Z,33.93
2023-03-27T13:32:41.097Z,36.00
2023-03-27T13:35:11.070Z,52.67
2023-03-27T13:37:43.394Z,46.17
2023-03-27T13:40:24.450Z,51.37
2023-03-27T13:42:52.408Z,30.63
2023-03-27T13:45:38.393Z,37.67
2023-03-27T13:48:05.649Z,39.27
2023-03-27T13:50:45.195Z,66.03
2023-03-27T13:53:12.728Z,39.63
2023-03-27T13:55:48.819Z,31.10
2023-03-27T13:58:16.094Z,37.33
2023-03-27T14:00:52.986Z,20.50
2023-03-27T14:03:32.572Z,20.00
2023-03-27T14:06:22.890Z,20.40
2023-03-27T14:08:59.930Z,19.37
2023-03-27T14:11:31.585Z,19.50
2023-03-27T14:14:02.443Z,20.40
2023-03-27T14:16:32.648Z,26.13
2023-03-27T14:19:18.644Z,19.63
2023-03-27T14:22:10.149Z,23.37
2023-03-27T14:24:39.946Z,19.37
2023-03-27T14:27:07.373Z,14.03
2023-03-27T14:29:34.880Z,22.13
2023-03-27T14:32:02.933Z,23.40
2023-03-27T14:34:47.287Z,20.23
2023-03-27T14:37:28.909Z,24.30
2023-03-27T14:39:56.615Z,19.80
2023-03-27T14:42:28.303Z,20.43
2023-03-27T14:45:16.175Z,18.47
2023-03-27T14:47:43.423Z,26.10
2023-03-27T14:50:13.767Z,27.57
2023-03-27T14:52:40.905Z,34.27
2023-03-27T14:55:08.253Z,34.40
2023-03-27T14:57:35.464Z,23.23
2023-03-27T15:00:06.743Z,45.60
2023-03-27T15:02:35.031Z,37.50
2023-03-27T15:05:09.664Z,33.87
2023-03-27T15:07:37.685Z,35.77
2023-03-27T15:10:16.424Z,42.47
2023-03-27T15:12:47.609Z,68.80
2023-03-27T15:15:38.926Z,37.03
2023-03-27T15:18:08.658Z,66.50
2023-03-27T15:20:37.319Z,55.23
2023-03-27T15:23:19.080Z,29.50
2023-03-27T15:25:56.551Z,30.53
2023-03-27T15:28:34.121Z,27.33
2023-03-27T15:31:01.730Z,18.97
2023-03-27T15:33:34.608Z,15.20
2023-03-27T15:36:03.948Z,18.50
2023-03-27T15:38:31.420Z,51.87
2023-03-27T15:41:02.770Z,45.57
2023-03-27T15:43:30.457Z,26.17
2023-03-27T15:46:00.761Z,50.40
2023-03-27T15:48:31.361Z,46.83
2023-03-27T15:51:02.299Z,30.73
2023-03-27T15:53:35.903Z,53.43
2023-03-27T15:56:04.185Z,30.43
2023-03-27T15:58:34.442Z,56.23
2023-03-27T16:01:02.265Z,40.93
2023-03-27T16:03:31.193Z,58.60
2023-03-27T16:05:58.711Z,36.83
2023-03-27T16:08:36.495Z,56.67
2023-03-27T16:11:04.254Z,44.23
2023-03-27T16:13:38.445Z,46.23
2023-03-27T16:16:06.457Z,50.40
2023-03-27T16:18:34.094Z,39.80
2023-03-27T16:21:11.064Z,44.07
2023-03-27T16:23:38.484Z,24.13
2023-03-27T16:26:06.553Z,45.27
2023-03-27T16:28:33.757Z,50.63
2023-03-27T16:31:03.839Z,47.13
2023-03-27T16:33:31.058Z,25.87
2023-03-27T16:35:58.887Z,39.50
2023-03-27T16:38:26.266Z,51.33
2023-03-27T16:40:53.433Z,45.83
2023-03-27T16:43:20.599Z,31.13
2023-03-27T16:45:47.812Z,30.87
2023-03-27T16:48:15.045Z,43.10
2023-03-27T16:50:42.286Z,27.67
2023-03-27T16:53:09.432Z,30.60
2023-03-27T16:55:36.628Z,40.00
2023-03-27T16:58:03.904Z,39.37
2023-03-27T17:00:31.599Z,17.70
2023-03-27T17:02:58.879Z,19.77
2023-03-27T17:05:26.195Z,27.67
2023-03-27T17:07:53.340Z,40.13
2023-03-27T17:10:21.131Z,38.97
2023-03-27T17:12:48.298Z,23.07
2023-03-27T17:15:16.629Z,19.17
2023-03-27T17:17:45.037Z,24.50
2023-03-27T17:20:12.357Z,47.73
2023-03-27T17:22:39.549Z,51.10
2023-03-27T17:25:07.189Z,31.10
2023-03-27T17:27:34.411Z,81.73
2023-03-27T17:30:01.603Z,86.03
2023-03-27T17:32:28.805Z,104.93
2023-03-27T17:34:56.350Z,52.43
2023-03-27T17:37:23.570Z,39.07
2023-03-27T17:39:50.869Z,36.30
2023-03-27T17:42:18.166Z,37.30
2023-03-27T17:44:45.495Z,34.63
2023-03-27T17:47:12.997Z,32.73
2023-03-27T17:49:40.938Z,30.60
2023-03-27T17:52:11.209Z,28.23
2023-03-27T17:54:38.527Z,30.13
2023-03-27T17:57:06.245Z,24.73
2023-03-27T17:59:33.430Z,30.53
2023-03-27T18:02:01.164Z,43.30
2023-03-27T18:04:28.533Z,48.17
2023-03-27T18:06:55.688Z,49.63
2023-03-27T18:09:22.892Z,74.80
2023-03-27T18:11:50.066Z,70.17
2023-03-27T18:14:17.217Z,63.63
2023-03-27T18:16:44.389Z,70.47
2023-03-27T18:19:12.327Z,52.43
2023-03-27T18:21:39.498Z,25.07
2023-03-27T18:24:06.786Z,23.77
2023-03-27T18:26:33.990Z,23.70
2023-03-27T18:29:01.180Z,30.17
2023-03-27T18:31:28.353Z,31.60
2023-03-27T18:33:55.623Z,29.70
2023-03-27T18:36:23.061Z,16.47
2023-03-27T18:38:50.384Z,18.53
2023-03-27T18:41:17.778Z,21.90
2023-03-27T18:43:44.931Z,18.30
2023-03-27T18:46:16.652Z,41.70
2023-03-27T18:48:44.486Z,51.47
2023-03-27T18:51:11.703Z,29.83
2023-03-27T18:53:38.874Z,28.77
2023-03-27T18:56:06.485Z,33.23
2023-03-27T18:58:33.919Z,42.33
2023-03-27T19:01:01.555Z,39.87
2023-03-27T19:03:30.557Z,21.67
2023-03-27T19:06:00.378Z,22.27
2023-03-27T19:08:27.486Z,26.70
2023-03-27T19:10:58.185Z,28.87
2023-03-27T19:13:25.883Z,37.87
2023-03-27T19:15:53.071Z,53.10
2023-03-27T19:18:21.082Z,46.93
2023-03-27T19:20:48.293Z,89.80
2023-03-27T19:23:16.408Z,57.67
2023-03-27T19:25:47.432Z,45.37
2023-03-27T19:28:14.696Z,54.67
2023-03-27T19:30:42.005Z,79.27
2023-03-27T19:33:09.462Z,62.83
2023-03-27T19:35:36.621Z,58.93
2023-03-27T19:38:03.917Z,69.93
2023-03-27T19:40:31.242Z,56.87
2023-03-27T19:42:58.384Z,102.23
2023-03-27T19:45:26.373Z,80.43
2023-03-27T19:47:53.673Z,89.70
2023-03-27T19:50:21.101Z,67.33
2023-03-27T19:52:57.220Z,84.70
2023-03-27T19:55:32.944Z,73.77
2023-03-27T19:58:00.309Z,60.73
2023-03-27T20:00:28.497Z,51.87
2023-03-27T20:02:57.932Z,39.17
2023-03-27T20:05:25.837Z,34.47
2023-03-27T20:07:52.973Z,38.33
2023-03-27T20:10:21.426Z,35.70
2023-03-27T20:12:48.869Z,29.50
2023-03-27T20:15:16.113Z,44.20
2023-03-27T20:17:43.391Z,57.63
2023-03-27T20:20:11.416Z,60.90
2023-03-27T20:22:50.116Z,50.70
2023-03-27T20:25:21.881Z,41.03
2023-03-27T20:27:49.017Z,39.40
2023-03-27T20:30:16.175Z,65.80
2023-03-27T20:32:43.349Z,52.40
2023-03-27T20:35:22.919Z,40.73
2023-03-27T20:37:56.529Z,39.40
2023-03-27T20:40:23.970Z,45.93
2023-03-27T20:43:03.131Z,38.47
2023-03-27T20:45:31.048Z,45.37
2023-03-27T20:48:03.973Z,33.10
2023-03-27T20:50:35.014Z,28.87
2023-03-27T20:53:04.567Z,25.80
2023-03-27T20:55:34.548Z,22.60
2023-03-27T20:58:06.790Z,27.53
2023-03-27T21:00:35.206Z,17.90
2023-03-27T21:03:02.560Z,36.20
2023-03-27T21:05:29.833Z,27.93
2023-03-27T21:07:56.992Z,22.20
2023-03-27T21:10:24.963Z,19.00
2023-03-27T21:12:54.182Z,47.97
2023-03-27T21:15:21.328Z,53.33
2023-03-27T21:17:48.597Z,30.30
2023-03-27T21:20:15.990Z,24.40
2023-03-27T21:22:43.156Z,32.53
2023-03-27T21:25:10.398Z,15.40
2023-03-27T21:27:37.559Z,17.33
2023-03-27T21:30:05.795Z,22.80
2023-03-27T21:32:32.998Z,25.77
2023-03-27T21:35:00.271Z,26.10
2023-03-27T21:37:27.423Z,35.87
2023-03-27T21:39:54.547Z,28.60
2023-03-27T21:42:21.927Z,20.03
2023-03-27T21:44:53.129Z,16.93
2023-03-27T21:47:23.013Z,17.13
2023-03-27T21:49:50.308Z,19.77
2023-03-27T21:52:17.439Z,18.97
2023-03-27T21:54:53.152Z,17.47
2023-03-27T21:57:29.442Z,18.57
2023-03-27T21:59:56.591Z,14.33
2023-03-27T22:02:23.769Z,18.40
2023-03-27T22:04:51.000Z,15.73
2023-03-27T22:07:18.243Z,15.37
2023-03-27T22:09:45.926Z,23.00
2023-03-27T22:12:13.395Z,15.07
2023-03-27T22:14:40.582Z,21.93
2023-03-27T22:17:07.948Z,18.87
2023-03-27T22:19:35.320Z,22.27
2023-03-27T22:22:02.574Z,15.17
2023-03-27T22:24:29.726Z,12.90
2023-03-27T22:26:57.053Z,17.90
2023-03-27T22:29:24.228Z,19.90
2023-03-27T22:31:51.824Z,22.53
2023-03-27T22:34:18.961Z,19.07
2023-03-27T22:36:46.396Z,17.90
2023-03-27T22:39:13.580Z,27.40
2023-03-27T22:41:40.839Z,28.53
2023-03-27T22:44:08.002Z,24.93
2023-03-27T22:46:35.564Z,23.70
2023-03-27T22:49:02.759Z,14.53
2023-03-27T22:51:30.326Z,14.00
2023-03-27T22:53:57.629Z,12.23
2023-03-27T22:56:24.809Z,12.30
2023-03-27T22:58:51.979Z,9.37
2023-03-27T23:01:19.195Z,11.53
2023-03-27T23:03:46.589Z,12.47
2023-03-27T23:06:17.814Z,12.10
2023-03-27T23:08:44.982Z,16.23
2023-03-27T23:11:12.801Z,11.30
2023-03-27T23:13:39.974Z,12.90
2023-03-27T23:16:07.634Z,13.90
2023-03-27T23:18:34.781Z,11.30
2023-03-27T23:21:06.142Z,16.07
2023-03-27T23:23:33.587Z,15.03
2023-03-27T23:26:00.914Z,19.77
2023-03-27T23:28:30.194Z,18.67
2023-03-27T23:30:59.062Z,21.57
2023-03-27T23:33:26.840Z,20.83
2023-03-27T23:35:54.341Z,17.20
2023-03-27T23:38:21.549Z,20.10
2023-03-27T23:40:54.627Z,22.77
2023-03-27T23:43:21.772Z,21.57
2023-03-27T23:45:48.946Z,21.33
2023-03-27T23:48:16.136Z,16.97
2023-03-27T23:50:43.255Z,17.47
2023-03-27T23:53:11.377Z,18.67
2023-03-27T23:55:39.454Z,16.80
2023-03-27T23:58:06.803Z,19.13
